Berit — ZDHX2 — position and weather

sailwx.info

Track history (hours):
 
Tides and Currents Weather Stations Pressure Air Temp Water Temp Dewpoint Dewpoint Depression Visibility Wind Speed Wind Dir Waves Ship Positions

Berit

Last reported at 2018-Feb-21 00:53 UTC. Time now 2018-Feb-21 17:33 UTC.
Position N 49°47' W 003°26'.

Length 83 m; draft 4.3 m.

Type: Cargo ship. MMSI: 236386000.

Date/timePositionNaut miles runAvg speedWind from/ knotsBaromVisibWave heightAir tempDewpointWater temp
2018-Feb-21 00:53N 49°47' W 003°26'4 9.5
2018-Feb-21 00:30N 49°49' W 003°21'5 8.9
2018-Feb-20 23:57N 49°51' W 003°14'4 8.4
2018-Feb-20 23:30N 49°53' W 003°09'6 7.9
2018-Feb-20 22:46N 49°56' W 003°02'2 7.6
2018-Feb-20 22:30N 49°57' W 002°59'4 7.5
2018-Feb-20 22:01N 49°59' W 002°54'4 7.4
2018-Feb-20 21:31N 49°60' W 002°48'4 7.7
2018-Feb-20 20:59N 50°01' W 002°42'3110.0
2018-Feb-20 17:52N 50°10' W 001°56'512.7
2018-Feb-20 17:30N 50°11' W 001°49'712.8
2018-Feb-20 16:59N 50°13' W 001°39'612.8
2018-Feb-20 16:29N 50°14' W 001°29'42 9.8
2018-Feb-20 12:13N 50°25' W 000°26'2 6.9
2018-Feb-20 12:00N 50°26' W 000°24'4 7.0
2018-Feb-20 11:29N 50°26' W 000°18'3 7.1
2018-Feb-20 11:00N 50°27' W 000°13'4 7.4
2018-Feb-20 10:29N 50°29' W 000°07'4 7.9
2018-Feb-20 09:57N 50°30' W 000°01'4 8.3
2018-Feb-20 09:30N 50°31' E 000°05'5 9.1
2018-Feb-20 09:00N 50°32' E 000°12'5 9.9
2018-Feb-20 08:30N 50°33' E 000°19'610.6
2018-Feb-20 07:58N 50°35' E 000°28'511.0
2018-Feb-20 07:30N 50°37' E 000°35'510.9
2018-Feb-20 07:00N 50°40' E 000°43'511.0
2018-Feb-20 06:30N 50°43' E 000°49'510.6
2018-Feb-20 06:00N 50°46' E 000°56'910.0
2018-Feb-20 05:07N 50°52' E 001°07'2 9.4
2018-Feb-20 04:51N 50°54' E 001°09'3 9.1
2018-Feb-20 04:30N 50°56' E 001°13'4 8.4
2018-Feb-20 04:00N 50°59' E 001°18'4 7.5
2018-Feb-20 03:30N 51°01' E 001°23'3 7.0
2018-Feb-20 03:00N 51°04' E 001°27'4 7.1
2018-Feb-20 02:30N 51°06' E 001°31'4 7.4
2018-Feb-20 02:00N 51°08' E 001°36'4 8.0
2018-Feb-20 01:30N 51°11' E 001°40'4 8.6
2018-Feb-20 01:00N 51°14' E 001°46'5 9.8
2018-Feb-20 00:30N 51°18' E 001°50'610.9
2018-Feb-20 00:00N 51°22' E 001°55'5 9.8
2018-Feb-19 23:30N 51°25' E 002°02'5 9.6
2018-Feb-19 22:59N 51°23' E 002°09'510.2
2018-Feb-19 22:30N 51°21' E 002°17'611.5
2018-Feb-19 22:00N 51°22' E 002°25'611.2
2018-Feb-19 21:30N 51°23' E 002°34'610.8
2018-Feb-19 20:59N 51°22' E 002°43'5 9.6
2018-Feb-19 20:30N 51°22' E 002°51'511.0
2018-Feb-19 20:00N 51°22' E 002°59'611.1
2018-Feb-19 19:30N 51°22' E 003°08'611.2
2018-Feb-19 19:00N 51°24' E 003°17'611.4
2018-Feb-19 18:27N 51°25' E 003°27'511.6
2018-Feb-19 18:00N 51°26' E 003°35'510.1
2018-Feb-19 17:30N 51°25' E 003°43'510.9
2018-Feb-19 17:00N 51°22' E 003°50'4 8.3
2018-Feb-19 16:30N 51°25' E 003°55'3 6.9
2018-Feb-19 16:00N 51°26' E 004°00'3 6.5
2018-Feb-19 15:30N 51°24' E 004°04'3 5.7
2018-Feb-19 15:00N 51°23' E 004°08'3 6.2
2018-Feb-19 14:30N 51°23' E 004°13'4 8.1
2018-Feb-19 14:00N 51°20' E 004°16'4 7.3
2018-Feb-19 13:31N 51°17' E 004°20'0 0.2
2018-Feb-19 13:00N 51°17' E 004°20'0 0.5
2018-Feb-19 12:30N 51°17' E 004°20'1 1.8
2018-Feb-19 12:00N 51°16' E 004°21'1 1.5
2018-Feb-19 11:30N 51°15' E 004°22'0 0.0
2018-Feb-19 10:55N 51°15' E 004°22'0 0.0
2018-Feb-19 10:25N 51°15' E 004°22'0 0.0
2018-Feb-19 09:58N 51°15' E 004°22'0 0.0
2018-Feb-19 09:28N 51°15' E 004°22'0 0.0
2018-Feb-19 08:58N 51°15' E 004°22'0 0.0
2018-Feb-19 08:19N 51°15' E 004°22'0 0.0
2018-Feb-19 07:55N 51°15' E 004°22'0 0.0
2018-Feb-19 07:28N 51°15' E 004°22'0 0.0
2018-Feb-19 06:55N 51°15' E 004°22'0 0.0
2018-Feb-19 06:28N 51°15' E 004°22'0 0.0
2018-Feb-19 05:58N 51°15' E 004°22'0 0.0
2018-Feb-19 05:28N 51°15' E 004°22'0 0.0
2018-Feb-19 04:58N 51°15' E 004°22'0 0.0
2018-Feb-19 04:28N 51°15' E 004°22'0 0.0
2018-Feb-19 03:58N 51°15' E 004°22'0 0.0
2018-Feb-19 03:28N 51°15' E 004°22'0 0.0
2018-Feb-19 02:58N 51°15' E 004°22'0 0.0
2018-Feb-19 02:28N 51°15' E 004°22'0 0.0
2018-Feb-19 01:58N 51°15' E 004°22'0 0.0
2018-Feb-19 01:25N 51°15' E 004°22'0 0.0
2018-Feb-19 00:58N 51°15' E 004°22'0 0.0
2018-Feb-19 00:25N 51°15' E 004°22'0 0.0
2018-Feb-18 23:58N 51°15' E 004°22'0 0.0
2018-Feb-18 23:28N 51°15' E 004°22'0 0.0
2018-Feb-18 22:58N 51°15' E 004°22'0 0.0
2018-Feb-18 22:25N 51°15' E 004°22'0 0.0
2018-Feb-18 21:55N 51°15' E 004°22'0 0.0
2018-Feb-18 21:25N 51°15' E 004°22'0 0.0
2018-Feb-18 20:58N 51°15' E 004°22'0 0.0
2018-Feb-18 20:25N 51°15' E 004°22'0 0.0
2018-Feb-18 19:58N 51°15' E 004°22'0 0.0
2018-Feb-18 19:28N 51°15' E 004°22'0 0.0
2018-Feb-18 18:49N 51°15' E 004°22'0 0.0
2018-Feb-18 18:28N 51°15' E 004°22'0 0.0
2018-Feb-18 17:58N 51°15' E 004°22'0 0.0
2018-Feb-18 17:16N 51°15' E 004°22'0 0.0
2018-Feb-18 16:55N 51°15' E 004°22'0 0.0
2018-Feb-18 16:28N 51°15' E 004°22'0 0.0
2018-Feb-18 15:55N 51°15' E 004°22'0 0.0
2018-Feb-18 15:28N 51°15' E 004°22'0 0.0
2018-Feb-18 14:58N 51°15' E 004°22'0 0.0
2018-Feb-18 14:28N 51°15' E 004°22'0 0.0
2018-Feb-18 13:58N 51°15' E 004°22'0 0.0
2018-Feb-18 13:28N 51°15' E 004°22'0 0.0
2018-Feb-18 12:58N 51°15' E 004°22'0 0.0
2018-Feb-18 12:28N 51°15' E 004°22'0 0.0
2018-Feb-18 11:55N 51°15' E 004°22'0 0.0
2018-Feb-18 11:28N 51°15' E 004°22'0 0.0
2018-Feb-18 10:58N 51°15' E 004°22'0 0.0
2018-Feb-18 10:28N 51°15' E 004°22'0 0.0
2018-Feb-18 09:58N 51°15' E 004°22'0 0.0
2018-Feb-18 09:28N 51°15' E 004°22'0 0.0
2018-Feb-18 08:58N 51°15' E 004°22'0 0.0
2018-Feb-18 08:30N 51°15' E 004°22'1 2.7
2018-Feb-18 08:00N 51°16' E 004°24'0 0.7
2018-Feb-18 07:29N 51°16' E 004°24'0 0.0
2018-Feb-18 06:59N 51°16' E 004°24'0 0.0
2018-Feb-18 06:29N 51°16' E 004°24'0 0.0
2018-Feb-18 05:56N 51°16' E 004°24'0 0.0
2018-Feb-18 05:29N 51°16' E 004°24'0 0.0
2018-Feb-18 04:59N 51°16' E 004°24'0 0.0
2018-Feb-18 04:29N 51°16' E 004°24'0 0.0
2018-Feb-18 03:56N 51°16' E 004°24'0 0.0
2018-Feb-18 03:29N 51°16' E 004°24'0 0.0
2018-Feb-18 02:59N 51°16' E 004°24'0 0.0
2018-Feb-18 02:29N 51°16' E 004°24'0 0.0
2018-Feb-18 01:59N 51°16' E 004°24'0 0.0
2018-Feb-18 01:26N 51°16' E 004°24'0 0.0
2018-Feb-18 00:56N 51°16' E 004°24'0 0.0
2018-Feb-18 00:29N 51°16' E 004°24'0 0.0
2018-Feb-17 23:59N 51°16' E 004°24'0 0.0
2018-Feb-17 23:29N 51°16' E 004°24'0 0.0
2018-Feb-17 22:59N 51°16' E 004°24'0 0.0
2018-Feb-17 22:26N 51°16' E 004°24'0 0.0
2018-Feb-17 21:59N 51°16' E 004°24'0 0.0
2018-Feb-17 21:29N 51°16' E 004°24'0 0.0
2018-Feb-17 20:59N 51°16' E 004°24'0 0.0
2018-Feb-17 20:29N 51°16' E 004°24'0 0.0
2018-Feb-17 19:59N 51°16' E 004°24'0 0.0
2018-Feb-17 19:26N 51°16' E 004°24'0 0.0
2018-Feb-17 18:59N 51°16' E 004°24'0 0.0
2018-Feb-17 18:23N 51°16' E 004°24'0 0.0
2018-Feb-17 17:59N 51°16' E 004°24'0 0.0
2018-Feb-17 17:29N 51°16' E 004°24'0 0.0
2018-Feb-17 16:59N 51°16' E 004°24'0 0.0
2018-Feb-17 16:29N 51°16' E 004°24'0 0.0
2018-Feb-17 15:59N 51°16' E 004°24'0 0.0
2018-Feb-17 15:29N 51°16' E 004°24'0 0.0
2018-Feb-17 14:59N 51°16' E 004°24'0 0.0
2018-Feb-17 14:29N 51°16' E 004°24'0 0.0
2018-Feb-17 13:59N 51°16' E 004°24'0 0.0
2018-Feb-17 13:29N 51°16' E 004°24'0 0.0
2018-Feb-17 12:59N 51°16' E 004°24'0 0.0
2018-Feb-17 12:26N 51°16' E 004°24'0 0.0
2018-Feb-17 11:59N 51°16' E 004°24'0 0.0
2018-Feb-17 11:26N 51°16' E 004°24'0 0.0
2018-Feb-17 10:59N 51°16' E 004°24'0 0.0
2018-Feb-17 10:29N 51°16' E 004°24'0 0.0
2018-Feb-17 09:59N 51°16' E 004°24'0 0.0
2018-Feb-17 09:29N 51°16' E 004°24'0 0.0
2018-Feb-17 08:59N 51°16' E 004°24'0 0.0
2018-Feb-17 08:29N 51°16' E 004°24'0 0.0
2018-Feb-17 07:59N 51°16' E 004°24'0 0.0
2018-Feb-17 07:29N 51°16' E 004°24'0 0.0
2018-Feb-17 06:59N 51°16' E 004°24'0 0.0
2018-Feb-17 06:29N 51°16' E 004°24'0 0.0
2018-Feb-17 05:59N 51°16' E 004°24'0 0.0
2018-Feb-17 05:29N 51°16' E 004°24'1 2.3
2018-Feb-17 05:00N 51°16' E 004°23'2 3.9
2018-Feb-17 04:30N 51°17' E 004°20'0 0.7
2018-Feb-17 04:00N 51°17' E 004°20'3 5.6
2018-Feb-17 03:30N 51°19' E 004°16'5 9.5
2018-Feb-17 03:00N 51°23' E 004°13'5 9.6
2018-Feb-17 02:30N 51°22' E 004°05'510.7
2018-Feb-17 02:00N 51°26' E 003°60'612.6
2018-Feb-17 01:31N 51°21' E 003°53'611.2
2018-Feb-17 01:00N 51°22' E 003°44'510.9
2018-Feb-17 00:30N 51°25' E 003°37'4 8.9
2018-Feb-17 00:00N 51°27' E 003°31'510.8
2018-Feb-16 23:31N 51°31' E 003°25'610.4
2018-Feb-16 22:57N 51°37' E 003°22'510.1
2018-Feb-16 22:30N 51°40' E 003°17'12 9.8
2018-Feb-16 21:19N 51°52' E 003°17'510.9
2018-Feb-16 20:50N 51°57' E 003°19'910.8
2018-Feb-16 19:58N 52°07' E 003°21'103 7.6
2018-Feb-16 06:30N 53°32' E 004°56'3 5.8
2018-Feb-16 05:59N 53°33' E 005°01'3 5.9
2018-Feb-16 05:31N 53°34' E 005°05'3 6.3
2018-Feb-16 04:59N 53°35' E 005°10'4 6.9
2018-Feb-16 04:29N 53°36' E 005°16'4 7.7
2018-Feb-16 03:59N 53°37' E 005°22'95 8.5
2018-Feb-15 16:44N 54°02' E 007°59'2410.1
2018-Feb-15 14:20N 53°57' E 008°39'4 9.8
2018-Feb-15 13:58N 53°54' E 008°42'4 8.5
2018-Feb-15 13:30N 53°51' E 008°47'4 8.1
2018-Feb-15 13:00N 53°51' E 008°54'4 7.7
2018-Feb-15 12:31N 53°51' E 009°00'4 7.5
2018-Feb-15 12:00N 53°53' E 009°06'2 3.8
2018-Feb-15 11:30N 53°54' E 009°09'0 0.8
2018-Feb-15 11:00N 53°54' E 009°09'0 0.4
2018-Feb-15 10:30N 53°54' E 009°09'0 0.0
2018-Feb-15 10:00N 53°54' E 009°09'1 2.8
2018-Feb-15 09:31N 53°55' E 009°11'4 8.0
2018-Feb-15 09:00N 53°58' E 009°16'4 8.2
2018-Feb-15 08:28N 54°02' E 009°18'5 7.9
2018-Feb-15 07:48N 54°07' E 009°20'2 7.8
2018-Feb-15 07:30N 54°09' E 009°22'4 8.7
2018-Feb-15 07:01N 54°11' E 009°29'4 7.5
2018-Feb-15 06:31N 54°13' E 009°35'4 7.5
2018-Feb-15 06:01N 54°16' E 009°38'4 7.7
2018-Feb-15 05:30N 54°18' E 009°43'4 8.0
2018-Feb-15 05:00N 54°22' E 009°47'27 5.7
2018-Feb-15 00:18N 54°33' E 010°29'3 8.8
2018-Feb-15 00:00N 54°34' E 010°33'5 9.2
2018-Feb-14 23:31N 54°35' E 010°41'5 9.3
2018-Feb-14 23:01N 54°35' E 010°49'5 9.0
2018-Feb-14 22:31N 54°36' E 010°56'5 9.1
2018-Feb-14 22:00N 54°36' E 011°04'5 9.3
2018-Feb-14 21:30N 54°36' E 011°12'5 9.9
2018-Feb-14 21:01N 54°34' E 011°20'510.1
2018-Feb-14 20:30N 54°31' E 011°27'5 9.6
2018-Feb-14 20:00N 54°29' E 011°35'5 9.3
2018-Feb-14 19:30N 54°28' E 011°42'5 9.2
2018-Feb-14 19:00N 54°27' E 011°50'5 9.5
2018-Feb-14 18:30N 54°27' E 011°58'78 9.1
2018-Feb-14 10:00N 55°03' E 013°58'18 9.3
2018-Feb-14 08:02N 55°16' E 014°20'1 9.5
2018-Feb-14 07:57N 55°16' E 014°22'4 9.5
2018-Feb-14 07:29N 55°20' E 014°26'5 9.6
2018-Feb-14 06:58N 55°24' E 014°32'5 9.4
2018-Feb-14 06:26N 55°27' E 014°39'4 9.4
2018-Feb-14 05:57N 55°29' E 014°45'6 9.3
2018-Feb-14 05:19N 55°32' E 014°54'3 9.3
2018-Feb-14 04:58N 55°33' E 014°60'4 9.2
2018-Feb-14 04:31N 55°35' E 015°07'5 9.1
2018-Feb-14 04:01N 55°36' E 015°15'4 9.0
2018-Feb-14 03:30N 55°37' E 015°22'4 8.8
2018-Feb-14 03:00N 55°38' E 015°30'4 8.9
2018-Feb-14 02:30N 55°39' E 015°38'4 8.9
2018-Feb-14 02:00N 55°40' E 015°45'4 8.8
2018-Feb-14 01:31N 55°40' E 015°53'4 9.0
2018-Feb-14 01:01N 55°40' E 016°01'5 9.1
2018-Feb-14 00:30N 55°41' E 016°09'4 9.1
2018-Feb-14 00:01N 55°41' E 016°17'5 9.1
2018-Feb-13 23:30N 55°41' E 016°25'  
Track history (hours):
 
Tides and Currents Weather Stations Pressure Air Temp Water Temp Dewpoint Dewpoint Depression Visibility Wind Speed Wind Dir Waves Ship Positions

Berit

Last reported at 2018-Feb-21 00:53 UTC. Time now 2018-Feb-21 17:33 UTC.
Position N 49°47' W 003°26'.

Length 83 m; draft 4.3 m.

Type: Cargo ship. MMSI: 236386000.

Date/timePositionNaut miles runAvg speedWind from/ knotsBaromVisibWave heightAir tempDewpointWater temp
2018-Feb-21 00:53N 49°47' W 003°26'4 9.5
2018-Feb-21 00:30N 49°49' W 003°21'5 8.9
2018-Feb-20 23:57N 49°51' W 003°14'4 8.4
2018-Feb-20 23:30N 49°53' W 003°09'6 7.9
2018-Feb-20 22:46N 49°56' W 003°02'2 7.6
2018-Feb-20 22:30N 49°57' W 002°59'4 7.5
2018-Feb-20 22:01N 49°59' W 002°54'4 7.4
2018-Feb-20 21:31N 49°60' W 002°48'4 7.7
2018-Feb-20 20:59N 50°01' W 002°42'3110.0
2018-Feb-20 17:52N 50°10' W 001°56'512.7
2018-Feb-20 17:30N 50°11' W 001°49'712.8
2018-Feb-20 16:59N 50°13' W 001°39'612.8
2018-Feb-20 16:29N 50°14' W 001°29'42 9.8
2018-Feb-20 12:13N 50°25' W 000°26'2 6.9
2018-Feb-20 12:00N 50°26' W 000°24'4 7.0
2018-Feb-20 11:29N 50°26' W 000°18'3 7.1
2018-Feb-20 11:00N 50°27' W 000°13'4 7.4
2018-Feb-20 10:29N 50°29' W 000°07'4 7.9
2018-Feb-20 09:57N 50°30' W 000°01'4 8.3
2018-Feb-20 09:30N 50°31' E 000°05'5 9.1
2018-Feb-20 09:00N 50°32' E 000°12'5 9.9
2018-Feb-20 08:30N 50°33' E 000°19'610.6
2018-Feb-20 07:58N 50°35' E 000°28'511.0
2018-Feb-20 07:30N 50°37' E 000°35'510.9
2018-Feb-20 07:00N 50°40' E 000°43'511.0
2018-Feb-20 06:30N 50°43' E 000°49'510.6
2018-Feb-20 06:00N 50°46' E 000°56'910.0
2018-Feb-20 05:07N 50°52' E 001°07'2 9.4
2018-Feb-20 04:51N 50°54' E 001°09'3 9.1
2018-Feb-20 04:30N 50°56' E 001°13'4 8.4
2018-Feb-20 04:00N 50°59' E 001°18'4 7.5
2018-Feb-20 03:30N 51°01' E 001°23'3 7.0
2018-Feb-20 03:00N 51°04' E 001°27'4 7.1
2018-Feb-20 02:30N 51°06' E 001°31'4 7.4
2018-Feb-20 02:00N 51°08' E 001°36'4 8.0
2018-Feb-20 01:30N 51°11' E 001°40'4 8.6
2018-Feb-20 01:00N 51°14' E 001°46'5 9.8
2018-Feb-20 00:30N 51°18' E 001°50'610.9
2018-Feb-20 00:00N 51°22' E 001°55'5 9.8
2018-Feb-19 23:30N 51°25' E 002°02'5 9.6
2018-Feb-19 22:59N 51°23' E 002°09'510.2
2018-Feb-19 22:30N 51°21' E 002°17'611.5
2018-Feb-19 22:00N 51°22' E 002°25'611.2
2018-Feb-19 21:30N 51°23' E 002°34'610.8
2018-Feb-19 20:59N 51°22' E 002°43'5 9.6
2018-Feb-19 20:30N 51°22' E 002°51'511.0
2018-Feb-19 20:00N 51°22' E 002°59'611.1
2018-Feb-19 19:30N 51°22' E 003°08'611.2
2018-Feb-19 19:00N 51°24' E 003°17'611.4
2018-Feb-19 18:27N 51°25' E 003°27'511.6
2018-Feb-19 18:00N 51°26' E 003°35'510.1
2018-Feb-19 17:30N 51°25' E 003°43'510.9
2018-Feb-19 17:00N 51°22' E 003°50'4 8.3
2018-Feb-19 16:30N 51°25' E 003°55'3 6.9
2018-Feb-19 16:00N 51°26' E 004°00'3 6.5
2018-Feb-19 15:30N 51°24' E 004°04'3 5.7
2018-Feb-19 15:00N 51°23' E 004°08'3 6.2
2018-Feb-19 14:30N 51°23' E 004°13'4 8.1
2018-Feb-19 14:00N 51°20' E 004°16'4 7.3
2018-Feb-19 13:31N 51°17' E 004°20'0 0.2
2018-Feb-19 13:00N 51°17' E 004°20'0 0.5
2018-Feb-19 12:30N 51°17' E 004°20'1 1.8
2018-Feb-19 12:00N 51°16' E 004°21'1 1.5
2018-Feb-19 11:30N 51°15' E 004°22'0 0.0
2018-Feb-19 10:55N 51°15' E 004°22'0 0.0
2018-Feb-19 10:25N 51°15' E 004°22'0 0.0
2018-Feb-19 09:58N 51°15' E 004°22'0 0.0
2018-Feb-19 09:28N 51°15' E 004°22'0 0.0
2018-Feb-19 08:58N 51°15' E 004°22'0 0.0
2018-Feb-19 08:19N 51°15' E 004°22'0 0.0
2018-Feb-19 07:55N 51°15' E 004°22'0 0.0
2018-Feb-19 07:28N 51°15' E 004°22'0 0.0
2018-Feb-19 06:55N 51°15' E 004°22'0 0.0
2018-Feb-19 06:28N 51°15' E 004°22'0 0.0
2018-Feb-19 05:58N 51°15' E 004°22'0 0.0
2018-Feb-19 05:28N 51°15' E 004°22'0 0.0
2018-Feb-19 04:58N 51°15' E 004°22'0 0.0
2018-Feb-19 04:28N 51°15' E 004°22'0 0.0
2018-Feb-19 03:58N 51°15' E 004°22'0 0.0
2018-Feb-19 03:28N 51°15' E 004°22'0 0.0
2018-Feb-19 02:58N 51°15' E 004°22'0 0.0
2018-Feb-19 02:28N 51°15' E 004°22'0 0.0
2018-Feb-19 01:58N 51°15' E 004°22'0 0.0
2018-Feb-19 01:25N 51°15' E 004°22'0 0.0
2018-Feb-19 00:58N 51°15' E 004°22'0 0.0
2018-Feb-19 00:25N 51°15' E 004°22'0 0.0
2018-Feb-18 23:58N 51°15' E 004°22'0 0.0
2018-Feb-18 23:28N 51°15' E 004°22'0 0.0
2018-Feb-18 22:58N 51°15' E 004°22'0 0.0
2018-Feb-18 22:25N 51°15' E 004°22'0 0.0
2018-Feb-18 21:55N 51°15' E 004°22'0 0.0
2018-Feb-18 21:25N 51°15' E 004°22'0 0.0
2018-Feb-18 20:58N 51°15' E 004°22'0 0.0
2018-Feb-18 20:25N 51°15' E 004°22'0 0.0
2018-Feb-18 19:58N 51°15' E 004°22'0 0.0
2018-Feb-18 19:28N 51°15' E 004°22'0 0.0
2018-Feb-18 18:49N 51°15' E 004°22'0 0.0
2018-Feb-18 18:28N 51°15' E 004°22'0 0.0
2018-Feb-18 17:58N 51°15' E 004°22'0 0.0
2018-Feb-18 17:16N 51°15' E 004°22'0 0.0
2018-Feb-18 16:55N 51°15' E 004°22'0 0.0
2018-Feb-18 16:28N 51°15' E 004°22'0 0.0
2018-Feb-18 15:55N 51°15' E 004°22'0 0.0
2018-Feb-18 15:28N 51°15' E 004°22'0 0.0
2018-Feb-18 14:58N 51°15' E 004°22'0 0.0
2018-Feb-18 14:28N 51°15' E 004°22'0 0.0
2018-Feb-18 13:58N 51°15' E 004°22'0 0.0
2018-Feb-18 13:28N 51°15' E 004°22'0 0.0
2018-Feb-18 12:58N 51°15' E 004°22'0 0.0
2018-Feb-18 12:28N 51°15' E 004°22'0 0.0
2018-Feb-18 11:55N 51°15' E 004°22'0 0.0
2018-Feb-18 11:28N 51°15' E 004°22'0 0.0
2018-Feb-18 10:58N 51°15' E 004°22'0 0.0
2018-Feb-18 10:28N 51°15' E 004°22'0 0.0
2018-Feb-18 09:58N 51°15' E 004°22'0 0.0
2018-Feb-18 09:28N 51°15' E 004°22'0 0.0
2018-Feb-18 08:58N 51°15' E 004°22'0 0.0
2018-Feb-18 08:30N 51°15' E 004°22'1 2.7
2018-Feb-18 08:00N 51°16' E 004°24'0 0.7
2018-Feb-18 07:29N 51°16' E 004°24'0 0.0
2018-Feb-18 06:59N 51°16' E 004°24'0 0.0
2018-Feb-18 06:29N 51°16' E 004°24'0 0.0
2018-Feb-18 05:56N 51°16' E 004°24'0 0.0
2018-Feb-18 05:29N 51°16' E 004°24'0 0.0
2018-Feb-18 04:59N 51°16' E 004°24'0 0.0
2018-Feb-18 04:29N 51°16' E 004°24'0 0.0
2018-Feb-18 03:56N 51°16' E 004°24'0 0.0
2018-Feb-18 03:29N 51°16' E 004°24'0 0.0
2018-Feb-18 02:59N 51°16' E 004°24'0 0.0
2018-Feb-18 02:29N 51°16' E 004°24'0 0.0
2018-Feb-18 01:59N 51°16' E 004°24'0 0.0
2018-Feb-18 01:26N 51°16' E 004°24'0 0.0
2018-Feb-18 00:56N 51°16' E 004°24'0 0.0
2018-Feb-18 00:29N 51°16' E 004°24'0 0.0
2018-Feb-17 23:59N 51°16' E 004°24'0 0.0
2018-Feb-17 23:29N 51°16' E 004°24'0 0.0
2018-Feb-17 22:59N 51°16' E 004°24'0 0.0
2018-Feb-17 22:26N 51°16' E 004°24'0 0.0
2018-Feb-17 21:59N 51°16' E 004°24'0 0.0
2018-Feb-17 21:29N 51°16' E 004°24'0 0.0
2018-Feb-17 20:59N 51°16' E 004°24'0 0.0
2018-Feb-17 20:29N 51°16' E 004°24'0 0.0
2018-Feb-17 19:59N 51°16' E 004°24'0 0.0
2018-Feb-17 19:26N 51°16' E 004°24'0 0.0
2018-Feb-17 18:59N 51°16' E 004°24'0 0.0
2018-Feb-17 18:23N 51°16' E 004°24'0 0.0
2018-Feb-17 17:59N 51°16' E 004°24'0 0.0
2018-Feb-17 17:29N 51°16' E 004°24'0 0.0
2018-Feb-17 16:59N 51°16' E 004°24'0 0.0
2018-Feb-17 16:29N 51°16' E 004°24'0 0.0
2018-Feb-17 15:59N 51°16' E 004°24'0 0.0
2018-Feb-17 15:29N 51°16' E 004°24'0 0.0
2018-Feb-17 14:59N 51°16' E 004°24'0 0.0
2018-Feb-17 14:29N 51°16' E 004°24'0 0.0
2018-Feb-17 13:59N 51°16' E 004°24'0 0.0
2018-Feb-17 13:29N 51°16' E 004°24'0 0.0
2018-Feb-17 12:59N 51°16' E 004°24'0 0.0
2018-Feb-17 12:26N 51°16' E 004°24'0 0.0
2018-Feb-17 11:59N 51°16' E 004°24'0 0.0
2018-Feb-17 11:26N 51°16' E 004°24'0 0.0
2018-Feb-17 10:59N 51°16' E 004°24'0 0.0
2018-Feb-17 10:29N 51°16' E 004°24'0 0.0
2018-Feb-17 09:59N 51°16' E 004°24'0 0.0
2018-Feb-17 09:29N 51°16' E 004°24'0 0.0
2018-Feb-17 08:59N 51°16' E 004°24'0 0.0
2018-Feb-17 08:29N 51°16' E 004°24'0 0.0
2018-Feb-17 07:59N 51°16' E 004°24'0 0.0
2018-Feb-17 07:29N 51°16' E 004°24'0 0.0
2018-Feb-17 06:59N 51°16' E 004°24'0 0.0
2018-Feb-17 06:29N 51°16' E 004°24'0 0.0
2018-Feb-17 05:59N 51°16' E 004°24'0 0.0
2018-Feb-17 05:29N 51°16' E 004°24'1 2.3
2018-Feb-17 05:00N 51°16' E 004°23'2 3.9
2018-Feb-17 04:30N 51°17' E 004°20'0 0.7
2018-Feb-17 04:00N 51°17' E 004°20'3 5.6
2018-Feb-17 03:30N 51°19' E 004°16'5 9.5
2018-Feb-17 03:00N 51°23' E 004°13'5 9.6
2018-Feb-17 02:30N 51°22' E 004°05'510.7
2018-Feb-17 02:00N 51°26' E 003°60'612.6
2018-Feb-17 01:31N 51°21' E 003°53'611.2
2018-Feb-17 01:00N 51°22' E 003°44'510.9
2018-Feb-17 00:30N 51°25' E 003°37'4 8.9
2018-Feb-17 00:00N 51°27' E 003°31'510.8
2018-Feb-16 23:31N 51°31' E 003°25'610.4
2018-Feb-16 22:57N 51°37' E 003°22'510.1
2018-Feb-16 22:30N 51°40' E 003°17'12 9.8
2018-Feb-16 21:19N 51°52' E 003°17'510.9
2018-Feb-16 20:50N 51°57' E 003°19'910.8
2018-Feb-16 19:58N 52°07' E 003°21'103 7.6
2018-Feb-16 06:30N 53°32' E 004°56'3 5.8
2018-Feb-16 05:59N 53°33' E 005°01'3 5.9
2018-Feb-16 05:31N 53°34' E 005°05'3 6.3
2018-Feb-16 04:59N 53°35' E 005°10'4 6.9
2018-Feb-16 04:29N 53°36' E 005°16'4 7.7
2018-Feb-16 03:59N 53°37' E 005°22'95 8.5
2018-Feb-15 16:44N 54°02' E 007°59'2410.1
2018-Feb-15 14:20N 53°57' E 008°39'4 9.8
2018-Feb-15 13:58N 53°54' E 008°42'4 8.5
2018-Feb-15 13:30N 53°51' E 008°47'4 8.1
2018-Feb-15 13:00N 53°51' E 008°54'4 7.7
2018-Feb-15 12:31N 53°51' E 009°00'4 7.5
2018-Feb-15 12:00N 53°53' E 009°06'2 3.8
2018-Feb-15 11:30N 53°54' E 009°09'0 0.8
2018-Feb-15 11:00N 53°54' E 009°09'0 0.4
2018-Feb-15 10:30N 53°54' E 009°09'0 0.0
2018-Feb-15 10:00N 53°54' E 009°09'1 2.8
2018-Feb-15 09:31N 53°55' E 009°11'4 8.0
2018-Feb-15 09:00N 53°58' E 009°16'4 8.2
2018-Feb-15 08:28N 54°02' E 009°18'5 7.9
2018-Feb-15 07:48N 54°07' E 009°20'2 7.8
2018-Feb-15 07:30N 54°09' E 009°22'4 8.7
2018-Feb-15 07:01N 54°11' E 009°29'4 7.5
2018-Feb-15 06:31N 54°13' E 009°35'4 7.5
2018-Feb-15 06:01N 54°16' E 009°38'4 7.7
2018-Feb-15 05:30N 54°18' E 009°43'4 8.0
2018-Feb-15 05:00N 54°22' E 009°47'27 5.7
2018-Feb-15 00:18N 54°33' E 010°29'3 8.8
2018-Feb-15 00:00N 54°34' E 010°33'5 9.2
2018-Feb-14 23:31N 54°35' E 010°41'5 9.3
2018-Feb-14 23:01N 54°35' E 010°49'5 9.0
2018-Feb-14 22:31N 54°36' E 010°56'5 9.1
2018-Feb-14 22:00N 54°36' E 011°04'5 9.3
2018-Feb-14 21:30N 54°36' E 011°12'5 9.9
2018-Feb-14 21:01N 54°34' E 011°20'510.1
2018-Feb-14 20:30N 54°31' E 011°27'5 9.6
2018-Feb-14 20:00N 54°29' E 011°35'5 9.3
2018-Feb-14 19:30N 54°28' E 011°42'5 9.2
2018-Feb-14 19:00N 54°27' E 011°50'5 9.5
2018-Feb-14 18:30N 54°27' E 011°58'78 9.1
2018-Feb-14 10:00N 55°03' E 013°58'18 9.3
2018-Feb-14 08:02N 55°16' E 014°20'1 9.5
2018-Feb-14 07:57N 55°16' E 014°22'4 9.5
2018-Feb-14 07:29N 55°20' E 014°26'5 9.6
2018-Feb-14 06:58N 55°24' E 014°32'5 9.4
2018-Feb-14 06:26N 55°27' E 014°39'4 9.4
2018-Feb-14 05:57N 55°29' E 014°45'6 9.3
2018-Feb-14 05:19N 55°32' E 014°54'3 9.3
2018-Feb-14 04:58N 55°33' E 014°60'4 9.2
2018-Feb-14 04:31N 55°35' E 015°07'5 9.1
2018-Feb-14 04:01N 55°36' E 015°15'4 9.0
2018-Feb-14 03:30N 55°37' E 015°22'4 8.8
2018-Feb-14 03:00N 55°38' E 015°30'4 8.9
2018-Feb-14 02:30N 55°39' E 015°38'4 8.9
2018-Feb-14 02:00N 55°40' E 015°45'4 8.8
2018-Feb-14 01:31N 55°40' E 015°53'4 9.0
2018-Feb-14 01:01N 55°40' E 016°01'5 9.1
2018-Feb-14 00:30N 55°41' E 016°09'4 9.1
2018-Feb-14 00:01N 55°41' E 016°17'5 9.1
2018-Feb-13 23:30N 55°41' E 016°25'  

Dump ship's entire track history